Time;durP1;ratioP1;P1;durP2;ratioP2;P2;SDS_P1;SDS_P2;PMS_P1;PMS_P2;Temp;Humidity;BMP_temperature;BMP_pressure;BME280_temperature;BME280_humidity;BME280_pressure;Samples;Min_cycle;Max_cycle;Signal;HPM_P1;HPM_P2
2022/05/22 00:00:07;;;;;;;;;;;;;;;12.23;62.13;98325.73;1686159;85;20098;-68
2022/05/22 00:02:37;;;;;;;;;;;;;;;12.22;62.23;98342.59;1686083;84;20086;-68
2022/05/22 00:05:06;;;;;;;;;;;;;;;12.19;62.43;98341.93;1686169;85;20106;-68
2022/05/22 00:07:32;;;;;;;;;;;;;;;12.15;62.39;98330.84;1686025;85;20137;-68
2022/05/22 00:10:01;;;;;;;;;;;;;;;12.11;62.78;98330.56;1686077;84;20598;-68
2022/05/22 00:12:28;;;;;;;;;;;;;;;12.06;63.06;98335.75;1686123;85;20454;-67
2022/05/22 00:14:55;;;;;;;;;;;;;;;12.02;63.31;98327.19;1686229;85;20121;-68
2022/05/22 00:17:21;;;;;;;;;;;;;;;11.97;63.50;98326.88;1686108;85;20122;-67
2022/05/22 00:19:48;;;;;;;;;;;;;;;11.89;63.94;98334.14;1686123;85;20422;-67
2022/05/22 00:22:14;;;;;;;;;;;;;;;11.82;64.14;98327.08;1686083;85;21161;-68
2022/05/22 00:24:40;;;;;;;;;;;;;;;11.78;64.54;98330.89;1686032;83;20178;-68
2022/05/22 00:27:07;;;;;;;;;;;;;;;11.74;64.97;98318.97;1686231;84;20082;-67
2022/05/22 00:29:36;;;;;;;;;;;;;;;11.71;65.12;98328.72;1686109;84;20395;-68
2022/05/22 00:32:04;;;;;;;;;;;;;;;11.65;65.41;98324.63;1686212;85;20110;-67
2022/05/22 00:34:31;;;;;;;;;;;;;;;11.57;65.69;98323.63;1686096;85;21215;-68
2022/05/22 00:36:57;;;;;;;;;;;;;;;11.51;66.28;98327.81;1686130;85;20130;-68
2022/05/22 00:39:24;;;;;;;;;;;;;;;11.48;66.42;98316.15;1686195;85;20430;-68
2022/05/22 00:41:52;;;;;;;;;;;;;;;11.50;66.68;98311.10;1686114;84;20098;-68
2022/05/22 00:44:19;;;;;;;;;;;;;;;11.50;66.91;98315.23;1686285;84;20162;-68
2022/05/22 00:46:47;;;;;;;;;;;;;;;11.50;66.95;98317.17;1686141;85;22039;-68
2022/05/22 00:49:21;;;;;;;;;;;;;;;11.49;67.28;98288.09;1686262;85;20433;-68
2022/05/22 00:51:58;;;;;;;;;;;;;;;11.47;67.10;98293.94;1686335;85;20420;-68
2022/05/22 00:54:33;;;;;;;;;;;;;;;11.50;67.23;98299.31;1683318;84;20126;-67
2022/05/22 00:57:12;;;;;;;;;;;;;;;11.48;67.51;98294.74;1686023;83;20454;-68
2022/05/22 00:59:43;;;;;;;;;;;;;;;11.44;67.73;98289.72;1685000;83;21203;-67
2022/05/22 01:02:11;;;;;;;;;;;;;;;11.42;67.81;98281.03;1699546;83;20324;-68
2022/05/22 01:04:38;;;;;;;;;;;;;;;11.42;67.88;98274.96;1694426;83;20080;-68
2022/05/22 01:07:06;;;;;;;;;;;;;;;11.39;67.98;98276.24;1699583;82;20127;-68
2022/05/22 01:09:33;;;;;;;;;;;;;;;11.37;68.01;98271.67;1708073;83;20431;-68
2022/05/22 01:12:14;;;;;;;;;;;;;;;11.36;68.39;98268.70;1701665;83;21172;-67
2022/05/22 01:14:41;;;;;;;;;;;;;;;11.35;68.46;98273.39;1699495;83;20418;-68
2022/05/22 01:17:09;;;;;;;;;;;;;;;11.33;68.83;98267.45;1709505;82;20094;-68
2022/05/22 01:19:38;;;;;;;;;;;;;;;11.34;69.00;98268.25;1702718;83;20090;-67
2022/05/22 01:22:10;;;;;;;;;;;;;;;11.35;69.29;98261.03;1714829;82;20083;-68
2022/05/22 01:24:38;;;;;;;;;;;;;;;11.38;69.40;98262.28;1710029;83;21215;-67
2022/05/22 01:27:11;;;;;;;;;;;;;;;11.39;69.34;98257.80;1699500;83;37439;-68
2022/05/22 01:29:53;;;;;;;;;;;;;;;11.40;69.50;98254.48;1701252;83;20093;-67
2022/05/22 01:32:20;;;;;;;;;;;;;;;11.41;69.71;98245.09;1702540;82;20515;-68
2022/05/22 01:34:48;;;;;;;;;;;;;;;11.40;69.66;98242.91;1697616;83;20094;-68
2022/05/22 01:37:15;;;;;;;;;;;;;;;11.37;69.62;98239.50;1699803;82;21859;-68
2022/05/22 01:39:44;;;;;;;;;;;;;;;11.33;69.70;98232.31;1710758;83;20099;-68
2022/05/22 01:42:11;;;;;;;;;;;;;;;11.25;69.84;98238.98;1714768;83;20148;-68
2022/05/22 01:44:38;;;;;;;;;;;;;;;11.16;70.15;98247.16;1714660;83;20108;-67
2022/05/22 01:47:06;;;;;;;;;;;;;;;11.07;70.42;98236.33;1740598;82;20461;-67
2022/05/22 01:49:33;;;;;;;;;;;;;;;10.98;70.93;98232.14;1714628;83;22156;-67
2022/05/22 01:52:00;;;;;;;;;;;;;;;10.89;71.54;98229.57;1714830;82;20450;-67
2022/05/22 01:54:27;;;;;;;;;;;;;;;10.79;71.90;98228.70;1714666;83;20119;-68
2022/05/22 01:56:56;;;;;;;;;;;;;;;10.70;72.41;98230.78;1714684;83;20092;-67
2022/05/22 01:59:22;;;;;;;;;;;;;;;10.60;72.87;98232.06;1714687;83;20131;-68
2022/05/22 02:01:51;;;;;;;;;;;;;;;10.52;73.84;98224.20;1713537;83;21160;-67
2022/05/22 02:04:17;;;;;;;;;;;;;;;10.46;74.04;98231.64;1714717;82;20459;-67
2022/05/22 02:09:26;;;;;;;;;;;;;;;10.33;74.99;98223.24;1659340;83;20101;-67
2022/05/22 02:11:54;;;;;;;;;;;;;;;10.25;75.38;98217.54;1686217;85;20170;-67
2022/05/22 02:14:20;;;;;;;;;;;;;;;10.21;75.56;98217.20;1686128;84;21127;-67
2022/05/22 02:16:50;;;;;;;;;;;;;;;10.16;76.39;98216.03;1686053;84;20437;-67
2022/05/22 02:19:16;;;;;;;;;;;;;;;10.14;76.20;98219.69;1686076;84;20074;-67
2022/05/22 02:21:45;;;;;;;;;;;;;;;10.11;76.34;98218.44;1686197;84;20384;-67
2022/05/22 02:24:11;;;;;;;;;;;;;;;10.07;76.64;98213.41;1686151;84;20134;-68
2022/05/22 02:26:38;;;;;;;;;;;;;;;10.05;77.01;98209.42;1686234;84;21134;-67
2022/05/22 02:29:08;;;;;;;;;;;;;;;10.03;77.48;98208.97;1685966;85;20140;-67
2022/05/22 02:31:34;;;;;;;;;;;;;;;10.01;77.77;98201.66;1686151;84;20428;-68
2022/05/22 02:34:02;;;;;;;;;;;;;;;9.99;77.98;98202.00;1685999;85;20086;-68
2022/05/22 02:36:29;;;;;;;;;;;;;;;10.01;78.27;98201.66;1686071;84;20157;-67
2022/05/22 02:38:56;;;;;;;;;;;;;;;10.03;78.43;98202.11;1709473;83;21048;-68
2022/05/22 02:41:24;;;;;;;;;;;;;;;10.03;78.64;98196.05;1703526;83;20169;-68
2022/05/22 02:43:55;;;;;;;;;;;;;;;10.05;78.80;98190.23;1700778;83;20513;-68
2022/05/22 02:46:22;;;;;;;;;;;;;;;10.07;79.05;98189.31;1699200;83;20114;-67
2022/05/22 02:48:52;;;;;;;;;;;;;;;10.09;79.07;98183.71;1699355;82;20116;-67
2022/05/22 02:51:20;;;;;;;;;;;;;;;10.10;79.16;98182.56;1701718;83;21235;-68
2022/05/22 02:53:48;;;;;;;;;;;;;;;10.13;79.05;98182.45;1700170;83;20078;-67
2022/05/22 02:56:21;;;;;;;;;;;;;;;10.14;79.00;98184.84;1699336;82;20114;-67
2022/05/22 02:58:49;;;;;;;;;;;;;;;10.16;79.03;98180.39;1704807;83;20551;-67
2022/05/22 03:01:16;;;;;;;;;;;;;;;10.18;79.12;98171.24;1715846;83;20132;-67
2022/05/22 03:03:43;;;;;;;;;;;;;;;10.19;79.02;98172.30;1713623;83;20640;-67
2022/05/22 03:08:54;;;;;;;;;;;;;;;10.24;79.03;98167.95;1723602;82;20139;-68
2022/05/22 03:11:20;;;;;;;;;;;;;;;10.28;78.86;98165.31;1712056;82;20126;-67
2022/05/22 03:13:47;;;;;;;;;;;;;;;10.32;78.91;98166.78;1699761;84;20115;-68
2022/05/22 03:16:14;;;;;;;;;;;;;;;10.34;78.88;98164.49;1710901;83;21134;-68
2022/05/22 03:18:42;;;;;;;;;;;;;;;10.34;78.78;98162.55;1728087;82;20083;-67
2022/05/22 03:21:12;;;;;;;;;;;;;;;10.35;78.83;98155.12;1728335;82;20127;-67
2022/05/22 03:23:40;;;;;;;;;;;;;;;10.37;78.97;98159.11;1728977;83;20083;-68
2022/05/22 03:26:09;;;;;;;;;;;;;;;10.39;78.76;98162.31;1728208;82;20119;-67
2022/05/22 03:28:37;;;;;;;;;;;;;;;10.41;78.70;98153.70;1728429;82;21161;-67
2022/05/22 03:31:03;;;;;;;;;;;;;;;10.43;78.62;98166.50;1728577;82;20426;-68
2022/05/22 03:33:32;;;;;;;;;;;;;;;10.47;78.58;98156.42;1728754;83;20087;-68
2022/05/22 03:36:00;;;;;;;;;;;;;;;10.50;78.70;98160.64;1728838;83;20599;-67
2022/05/22 03:38:26;;;;;;;;;;;;;;;10.54;78.62;98156.63;1728878;82;20458;-67
2022/05/22 03:40:55;;;;;;;;;;;;;;;10.59;78.39;98150.89;1728442;82;21799;-67
2022/05/22 03:43:22;;;;;;;;;;;;;;;10.63;78.12;98144.13;1728858;83;20437;-67
2022/05/22 03:45:49;;;;;;;;;;;;;;;10.67;78.09;98138.97;1728875;82;20162;-67
2022/05/22 03:48:16;;;;;;;;;;;;;;;10.73;78.40;98132.08;1728656;82;20366;-67
2022/05/22 03:50:43;;;;;;;;;;;;;;;10.77;78.23;98133.55;1728984;82;20151;-67
2022/05/22 03:53:10;;;;;;;;;;;;;;;10.83;78.15;98129.40;1728867;82;21140;-67
2022/05/22 03:55:42;;;;;;;;;;;;;;;10.86;77.75;98132.81;1728665;82;20094;-67
2022/05/22 03:58:10;;;;;;;;;;;;;;;10.89;77.92;98133.48;1728404;82;20502;-66
2022/05/22 04:00:37;;;;;;;;;;;;;;;10.95;77.44;98132.66;1728249;83;20089;-68
2022/05/22 04:03:05;;;;;;;;;;;;;;;10.98;77.09;98135.46;1728380;83;20097;-67
2022/05/22 04:05:32;;;;;;;;;;;;;;;11.04;77.30;98128.56;1728257;83;21130;-67
2022/05/22 04:08:03;;;;;;;;;;;;;;;11.07;76.83;98129.23;1728182;83;20456;-67
2022/05/22 04:10:31;;;;;;;;;;;;;;;11.11;76.88;98116.96;1727017;83;20116;-67
2022/05/22 04:12:59;;;;;;;;;;;;;;;11.16;76.94;98130.43;1720464;82;20164;-68
2022/05/22 04:15:27;;;;;;;;;;;;;;;11.22;76.87;98130.39;1713082;82;20125;-68
2022/05/22 04:17:55;;;;;;;;;;;;;;;11.28;77.04;98126.80;1726657;83;21820;-68
2022/05/22 04:20:25;;;;;;;;;;;;;;;11.35;76.06;98113.25;1728411;83;20094;-67
2022/05/22 04:25:39;;;;;;;;;;;;;;;11.49;76.75;98110.84;1728712;83;20154;-67
2022/05/22 04:28:06;;;;;;;;;;;;;;;11.61;76.03;98120.33;1749509;82;20206;-68
2022/05/22 04:30:33;;;;;;;;;;;;;;;11.70;75.97;98117.39;1715985;83;21090;-68
2022/05/22 04:33:02;;;;;;;;;;;;;;;11.77;75.50;98107.39;1748079;82;20109;-68
2022/05/22 04:35:30;;;;;;;;;;;;;;;11.84;75.07;98102.05;1715994;83;20172;-68
2022/05/22 04:38:02;;;;;;;;;;;;;;;11.89;74.16;98113.35;1749289;80;20488;-68
2022/05/22 04:40:29;;;;;;;;;;;;;;;11.92;73.54;98104.96;1715518;83;20465;-68
2022/05/22 04:42:56;;;;;;;;;;;;;;;11.99;75.20;98117.50;1749413;82;21219;-67
2022/05/22 04:45:23;;;;;;;;;;;;;;;12.10;74.46;98114.41;1716032;83;20084;-68
2022/05/22 04:48:01;;;;;;;;;;;;;;;12.17;74.01;98107.07;1749300;81;20133;-68
2022/05/22 04:50:36;;;;;;;;;;;;;;;12.22;73.91;98101.86;1735563;82;20095;-68
2022/05/22 04:53:13;;;;;;;;;;;;;;;12.21;73.19;98119.52;1719798;83;20097;-68
2022/05/22 04:55:51;;;;;;;;;;;;;;;12.13;73.24;98113.08;1746287;82;21178;-67
2022/05/22 04:58:19;;;;;;;;;;;;;;;12.07;73.96;98106.87;1714604;83;20412;-67
2022/05/22 05:00:46;;;;;;;;;;;;;;;12.05;74.37;98116.06;1740068;82;20174;-68
2022/05/22 05:03:14;;;;;;;;;;;;;;;12.06;74.43;98115.70;1714762;82;20147;-67
2022/05/22 05:05:40;;;;;;;;;;;;;;;12.08;74.10;98113.97;1714712;83;20071;-68
2022/05/22 05:08:08;;;;;;;;;;;;;;;12.06;74.08;98118.45;1714249;82;21125;-68
2022/05/22 05:10:46;;;;;;;;;;;;;;;12.04;74.81;98111.72;1713645;83;20120;-68
2022/05/22 05:13:24;;;;;;;;;;;;;;;12.03;74.65;98108.17;1713104;83;20111;-68
2022/05/22 05:16:00;;;;;;;;;;;;;;;12.00;74.80;98113.59;1713319;84;20539;-68
2022/05/22 05:18:29;;;;;;;;;;;;;;;11.98;74.27;98106.28;1713433;83;20100;-67
2022/05/22 05:20:58;;;;;;;;;;;;;;;11.97;74.63;98108.23;1713192;84;21131;-67
2022/05/22 05:23:25;;;;;;;;;;;;;;;11.97;75.06;98110.19;1711694;84;20596;-67
2022/05/22 05:25:53;;;;;;;;;;;;;;;11.98;75.02;98111.77;1712472;83;20403;-69
2022/05/22 05:28:20;;;;;;;;;;;;;;;11.99;75.52;98110.63;1713221;84;20156;-67
2022/05/22 05:30:46;;;;;;;;;;;;;;;12.02;75.19;98104.41;1713064;82;20111;-67
2022/05/22 05:33:13;;;;;;;;;;;;;;;12.02;75.16;98107.16;1713214;82;21892;-76
2022/05/22 05:35:53;;;;;;;;;;;;;;;12.06;75.23;98108.03;1665167;83;20126;-77
2022/05/22 05:38:21;;;;;;;;;;;;;;;12.12;74.30;98103.84;1702250;84;20191;-79
2022/05/22 05:40:49;;;;;;;;;;;;;;;12.16;73.57;98103.30;1713034;84;20467;-82
2022/05/22 05:43:17;;;;;;;;;;;;;;;12.20;73.34;98100.05;1713131;84;20426;-79
2022/05/22 05:45:44;;;;;;;;;;;;;;;12.23;73.23;98096.58;1713162;82;21137;-80
2022/05/22 05:48:10;;;;;;;;;;;;;;;12.30;73.45;98103.60;1713085;84;20087;-81
2022/05/22 05:50:38;;;;;;;;;;;;;;;12.37;72.88;98101.00;1709010;83;20099;-71
2022/05/22 05:53:12;;;;;;;;;;;;;;;12.50;71.69;98085.93;1702154;84;20451;-71
2022/05/22 05:55:50;;;;;;;;;;;;;;;12.59;71.65;98100.84;1713398;84;20396;-72
2022/05/22 05:58:35;;;;;;;;;;;;;;;12.68;71.39;98090.41;1713152;82;21151;-70
2022/05/22 06:01:21;;;;;;;;;;;;;;;12.73;70.93;98084.57;1713216;82;20151;-71
2022/05/22 06:03:48;;;;;;;;;;;;;;;12.76;71.18;98087.17;1713125;82;20100;-72
2022/05/22 06:06:16;;;;;;;;;;;;;;;12.77;70.76;98081.88;1713238;83;20128;-71
2022/05/22 06:08:43;;;;;;;;;;;;;;;12.79;70.99;98096.88;1714700;82;20088;-72
2022/05/22 06:11:24;;;;;;;;;;;;;;;12.77;70.05;98090.94;1738757;82;21168;-71
2022/05/22 06:13:50;;;;;;;;;;;;;;;12.74;70.28;98087.53;1714590;83;20131;-72
2022/05/22 06:16:18;;;;;;;;;;;;;;;12.70;70.39;98088.08;1714648;83;20415;-72
2022/05/22 06:18:55;;;;;;;;;;;;;;;12.64;70.53;98081.86;1733372;82;20122;-71
2022/05/22 06:21:22;;;;;;;;;;;;;;;12.53;70.96;98097.59;1736785;82;20110;-70
2022/05/22 06:23:50;;;;;;;;;;;;;;;12.43;70.93;98094.63;1703459;82;21088;-72
2022/05/22 06:26:35;;;;;;;;;;;;;;;12.35;71.67;98086.01;1708528;83;20435;-72
2022/05/22 06:29:10;;;;;;;;;;;;;;;12.26;72.28;98082.67;1730781;82;20152;-72
2022/05/22 06:31:38;;;;;;;;;;;;;;;12.18;72.94;98085.86;1703823;82;20353;-72
2022/05/22 06:34:09;;;;;;;;;;;;;;;12.09;73.85;98090.23;1739936;82;20146;-71
2022/05/22 06:36:46;;;;;;;;;;;;;;;11.99;76.85;98086.66;1738899;82;21168;-71
2022/05/22 06:42:23;;;;;;;;;;;;;;;11.84;77.95;98095.18;1696611;82;20124;-72
2022/05/22 06:45:11;;;;;;;;;;;;;;;11.78;78.63;98085.61;1720159;82;20161;-72
2022/05/22 06:47:42;;;;;;;;;;;;;;;11.78;79.04;98087.57;1705646;83;20093;-73
2022/05/22 06:50:27;;;;;;;;;;;;;;;11.90;79.37;98092.38;1705741;83;21244;-72
2022/05/22 06:53:04;;;;;;;;;;;;;;;12.17;79.13;98088.39;1687259;84;20164;-73
2022/05/22 06:55:42;;;;;;;;;;;;;;;12.43;77.88;98078.11;1662108;84;20150;-72
2022/05/22 06:58:27;;;;;;;;;;;;;;;12.63;77.34;98085.20;1713953;82;20087;-73
2022/05/22 07:01:04;;;;;;;;;;;;;;;12.72;75.57;98084.35;1744651;82;20125;-72
2022/05/22 07:03:39;;;;;;;;;;;;;;;12.67;74.43;98073.67;1669121;82;21861;-72
2022/05/22 07:06:17;;;;;;;;;;;;;;;12.62;74.15;98073.17;1699530;83;20498;-73
2022/05/22 07:08:58;;;;;;;;;;;;;;;12.59;74.96;98068.39;1745698;82;20432;-73
2022/05/22 07:11:41;;;;;;;;;;;;;;;12.56;74.44;98069.91;1737281;82;20176;-73
2022/05/22 07:14:18;;;;;;;;;;;;;;;12.55;74.56;98076.00;1747016;82;20160;-73
2022/05/22 07:16:46;;;;;;;;;;;;;;;12.63;74.92;98063.75;1745430;82;21161;-73
2022/05/22 07:19:15;;;;;;;;;;;;;;;12.71;72.55;98068.23;1748743;82;20133;-71
2022/05/22 07:21:44;;;;;;;;;;;;;;;12.75;69.52;98081.45;1746794;82;20121;-72
2022/05/22 07:24:13;;;;;;;;;;;;;;;12.73;68.70;98086.52;1746208;80;20489;-73
2022/05/22 07:26:48;;;;;;;;;;;;;;;12.70;69.60;98072.14;1748641;82;20141;-73
2022/05/22 07:29:16;;;;;;;;;;;;;;;12.77;70.66;98066.16;1692101;82;21178;-73
2022/05/22 07:32:00;;;;;;;;;;;;;;;12.93;69.38;98063.30;1749422;82;20169;-72
2022/05/22 07:34:29;;;;;;;;;;;;;;;13.13;68.86;98075.84;1722574;82;20149;-73
2022/05/22 07:37:06;;;;;;;;;;;;;;;13.38;68.13;98069.95;1745975;82;20145;-72
2022/05/22 07:39:50;;;;;;;;;;;;;;;13.60;67.29;98056.71;1749422;82;20180;-73
2022/05/22 07:42:33;;;;;;;;;;;;;;;13.82;67.20;98062.75;1746822;82;21272;-73
2022/05/22 07:45:17;;;;;;;;;;;;;;;14.01;66.67;98072.03;1747094;82;20182;-72
2022/05/22 07:47:49;;;;;;;;;;;;;;;14.18;66.81;98059.84;1747875;82;20110;-72
2022/05/22 07:50:17;;;;;;;;;;;;;;;14.24;65.68;98058.14;1748247;82;20146;-72
2022/05/22 07:52:46;;;;;;;;;;;;;;;14.14;65.39;98053.48;1691496;82;20110;-73
2022/05/22 07:55:24;;;;;;;;;;;;;;;13.94;65.10;98052.63;1748137;82;21204;-72
2022/05/22 07:58:09;;;;;;;;;;;;;;;13.69;65.87;98062.75;1717281;83;20182;-72
2022/05/22 08:00:37;;;;;;;;;;;;;;;13.43;66.69;98059.98;1736539;82;20166;-72
2022/05/22 08:03:11;;;;;;;;;;;;;;;13.26;67.33;98070.17;1704355;82;20466;-74
2022/05/22 08:05:39;;;;;;;;;;;;;;;13.07;66.91;98066.30;1708845;83;20139;-73
2022/05/22 08:08:07;;;;;;;;;;;;;;;12.96;67.81;98068.65;1702006;83;21114;-74
2022/05/22 08:10:36;;;;;;;;;;;;;;;12.90;68.85;98062.65;1738331;82;20166;-73
2022/05/22 08:13:06;;;;;;;;;;;;;;;12.82;69.46;98066.44;1714483;83;20071;-73
2022/05/22 08:15:35;;;;;;;;;;;;;;;12.71;70.02;98073.13;1714749;83;20096;-73
2022/05/22 08:18:04;;;;;;;;;;;;;;;12.63;70.56;98073.39;1738611;82;20134;-73
2022/05/22 08:20:34;;;;;;;;;;;;;;;12.51;70.42;98074.34;1714157;83;21834;-77
2022/05/22 08:23:05;;;;;;;;;;;;;;;12.40;70.92;98064.50;1713141;83;20115;-77
2022/05/22 08:25:51;;;;;;;;;;;;;;;12.29;70.88;98095.13;1712844;83;20115;-78
2022/05/22 08:28:16;;;;;;;;;;;;;;;12.13;72.31;98102.68;1710227;82;20151;-74
2022/05/22 08:30:44;;;;;;;;;;;;;;;11.94;74.49;98103.45;1699481;83;20086;-73
2022/05/22 08:33:11;;;;;;;;;;;;;;;11.74;75.58;98103.95;1713889;83;20472;-73
2022/05/22 08:35:39;;;;;;;;;;;;;;;11.64;76.96;98111.95;1714835;82;20120;-73
2022/05/22 08:38:05;;;;;;;;;;;;;;;11.52;77.89;98110.93;1715126;83;20190;-73
2022/05/22 08:40:42;;;;;;;;;;;;;;;11.41;78.99;98111.25;1714804;83;20088;-73
2022/05/22 08:43:15;;;;;;;;;;;;;;;11.30;79.95;98110.77;1715047;82;20099;-73
2022/05/22 08:45:47;;;;;;;;;;;;;;;11.25;79.71;98121.44;1714825;83;21148;-73
2022/05/22 08:48:31;;;;;;;;;;;;;;;11.25;79.77;98114.00;1714622;83;20243;-73
2022/05/22 08:50:58;;;;;;;;;;;;;;;11.30;78.79;98112.94;1714119;82;20084;-73
2022/05/22 08:53:35;;;;;;;;;;;;;;;11.33;77.99;98115.55;1713669;83;20452;-73
2022/05/22 08:59:11;;;;;;;;;;;;;;;11.35;76.48;98128.36;1716384;82;21106;-73
2022/05/22 09:01:57;;;;;;;;;;;;;;;11.35;75.17;98129.73;1712374;83;20097;-72
2022/05/22 09:04:43;;;;;;;;;;;;;;;11.30;76.36;98121.17;1698513;84;20121;-77
2022/05/22 09:07:19;;;;;;;;;;;;;;;11.28;77.56;98124.85;1699565;83;20223;-75
2022/05/22 09:09:57;;;;;;;;;;;;;;;11.34;79.53;98125.39;1699821;84;20449;-73
2022/05/22 09:12:43;;;;;;;;;;;;;;;11.40;80.06;98122.59;1697383;84;21132;-73
2022/05/22 09:15:28;;;;;;;;;;;;;;;11.43;81.03;98132.88;1699457;84;20132;-73
2022/05/22 09:17:59;;;;;;;;;;;;;;;11.43;82.36;98135.63;1699518;84;20126;-73
2022/05/22 09:20:32;;;;;;;;;;;;;;;11.38;84.29;98133.94;1699865;84;20097;-75
2022/05/22 09:23:03;;;;;;;;;;;;;;;11.36;84.90;98134.88;1699705;83;20171;-75
2022/05/22 09:25:45;;;;;;;;;;;;;;;11.39;86.38;98136.91;1749101;82;22188;-73
2022/05/22 09:28:20;;;;;;;;;;;;;;;11.46;85.21;98140.41;1750144;81;20083;-73
2022/05/22 09:30:56;;;;;;;;;;;;;;;11.51;86.24;98130.52;1741058;81;20109;-73
2022/05/22 09:33:32;;;;;;;;;;;;;;;11.57;86.68;98129.86;1732079;83;20466;-73
2022/05/22 09:36:19;;;;;;;;;;;;;;;11.64;87.16;98127.86;1750604;82;20133;-73
2022/05/22 09:38:55;;;;;;;;;;;;;;;11.64;85.52;98129.23;1716492;83;21166;-74
2022/05/22 09:41:34;;;;;;;;;;;;;;;11.62;85.79;98114.26;1752242;82;20114;-74
2022/05/22 09:44:19;;;;;;;;;;;;;;;11.64;85.28;98129.81;1716485;83;20087;-74
2022/05/22 09:47:09;;;;;;;;;;;;;;;11.69;85.31;98128.97;1709334;82;20121;-74
2022/05/22 09:49:45;;;;;;;;;;;;;;;11.75;84.07;98134.41;1716613;83;20095;-74
2022/05/22 09:52:37;;;;;;;;;;;;;;;11.79;84.67;98137.27;1748452;82;21107;-74
2022/05/22 09:55:09;;;;;;;;;;;;;;;11.83;84.22;98136.20;1716539;83;20099;-75
2022/05/22 09:58:09;;;;;;;;;;;;;;;11.82;82.58;98134.61;1742770;82;20725;-74
2022/05/22 10:00:43;;;;;;;;;;;;;;;11.82;83.53;98141.48;1737464;81;20137;-74
2022/05/22 10:03:13;;;;;;;;;;;;;;;11.84;82.37;98136.42;1724656;82;20144;-73
2022/05/22 10:06:09;;;;;;;;;;;;;;;11.84;82.39;98135.05;1720053;83;21186;-73
2022/05/22 10:09:01;;;;;;;;;;;;;;;11.84;82.11;98126.00;1719181;83;20192;-74
2022/05/22 10:11:43;;;;;;;;;;;;;;;11.94;82.55;98120.52;1725581;82;20133;-74
2022/05/22 10:14:38;;;;;;;;;;;;;;;12.06;83.17;98143.78;1728067;82;20127;-74
2022/05/22 10:17:14;;;;;;;;;;;;;;;12.08;82.43;98140.09;1729031;83;20111;-76
2022/05/22 10:19:50;;;;;;;;;;;;;;;12.07;82.77;98136.55;1721468;82;21762;-75
2022/05/22 10:22:21;;;;;;;;;;;;;;;12.09;82.11;98141.11;1728733;82;20454;-75
2022/05/22 10:24:57;;;;;;;;;;;;;;;12.07;82.72;98141.25;1706111;83;20429;-75
2022/05/22 10:27:48;;;;;;;;;;;;;;;12.05;81.67;98139.44;1727018;83;20079;-74
2022/05/22 10:30:35;;;;;;;;;;;;;;;12.02;81.51;98142.91;1727319;82;20111;-75
2022/05/22 10:33:12;;;;;;;;;;;;;;;12.01;81.90;98150.36;1726945;82;20465;-75
2022/05/22 10:35:58;;;;;;;;;;;;;;;11.98;80.29;98149.70;1706924;82;20097;-73
2022/05/22 10:38:27;;;;;;;;;;;;;;;11.96;80.29;98156.72;1706775;84;20089;-74
2022/05/22 10:43:43;;;;;;;;;;;;;;;11.96;80.62;98142.97;1729024;82;20134;-75
2022/05/22 10:46:09;;;;;;;;;;;;;;;11.98;80.34;98153.03;1728308;82;21119;-74
2022/05/22 10:48:48;;;;;;;;;;;;;;;11.97;81.54;98161.06;1727200;83;20468;-74
2022/05/22 10:51:23;;;;;;;;;;;;;;;11.89;82.69;98149.89;1715773;83;20125;-73
2022/05/22 10:53:56;;;;;;;;;;;;;;;11.77;81.11;98148.63;1747938;82;20513;-73
2022/05/22 10:56:29;;;;;;;;;;;;;;;11.68;82.25;98147.19;1747941;82;20149;-73
2022/05/22 10:59:00;;;;;;;;;;;;;;;11.66;82.55;98153.62;1747910;81;21726;-74
2022/05/22 11:01:30;;;;;;;;;;;;;;;11.71;83.10;98151.98;1748177;81;20173;-74
2022/05/22 11:04:10;;;;;;;;;;;;;;;11.76;82.20;98140.13;1748454;81;20469;-73
2022/05/22 11:06:39;;;;;;;;;;;;;;;11.81;81.61;98154.21;1725080;82;20155;-72
2022/05/22 11:09:06;;;;;;;;;;;;;;;11.82;82.70;98158.55;1720262;82;20174;-72
2022/05/22 11:11:34;;;;;;;;;;;;;;;11.80;82.25;98161.66;1747240;82;21115;-72
2022/05/22 11:14:15;;;;;;;;;;;;;;;11.80;82.49;98155.36;1722615;83;20137;-72
2022/05/22 11:16:41;;;;;;;;;;;;;;;11.74;81.69;98165.80;1709261;83;20184;-72
2022/05/22 11:19:15;;;;;;;;;;;;;;;11.71;82.39;98172.02;1695554;84;20448;-72
2022/05/22 11:22:06;;;;;;;;;;;;;;;11.65;82.40;98167.14;1696547;84;20086;-71
2022/05/22 11:24:51;;;;;;;;;;;;;;;11.59;82.78;98158.37;1639565;87;21211;-71
2022/05/22 11:27:50;;;;;;;;;;;;;;;11.57;82.92;98171.67;1639914;87;20122;-72
2022/05/22 11:30:28;;;;;;;;;;;;;;;11.58;83.41;98171.89;1681511;84;20129;-71
2022/05/22 11:33:08;;;;;;;;;;;;;;;11.62;83.60;98172.78;1697065;84;20101;-72
2022/05/22 11:35:46;;;;;;;;;;;;;;;11.66;83.68;98164.04;1699705;84;20128;-72
2022/05/22 11:38:22;;;;;;;;;;;;;;;11.73;82.83;98171.08;1728292;83;21250;-73
2022/05/22 11:40:58;;;;;;;;;;;;;;;11.84;82.73;98174.92;1748313;82;20142;-74
2022/05/22 11:43:31;;;;;;;;;;;;;;;11.92;79.34;98164.09;1725433;82;20123;-76
2022/05/22 11:46:03;;;;;;;;;;;;;;;11.92;78.49;98174.51;1705167;83;20135;-75
2022/05/22 11:48:48;;;;;;;;;;;;;;;11.94;77.74;98176.91;1699946;83;20118;-73
2022/05/22 11:51:26;;;;;;;;;;;;;;;11.98;78.11;98165.41;1697509;84;21562;-68
2022/05/22 11:54:27;;;;;;;;;;;;;;;12.04;79.32;98178.52;1697897;84;20124;-68
2022/05/22 11:57:15;;;;;;;;;;;;;;;12.10;80.46;98177.67;1629993;86;20101;-73
2022/05/22 11:59:52;;;;;;;;;;;;;;;12.11;79.49;98182.02;1681609;84;20180;-77
2022/05/22 12:02:25;;;;;;;;;;;;;;;12.08;77.90;98188.23;1700503;83;20168;-70
2022/05/22 12:04:58;;;;;;;;;;;;;;;12.06;78.25;98185.05;1693741;84;21181;-75
2022/05/22 12:07:43;;;;;;;;;;;;;;;12.07;78.56;98186.64;1686524;82;20153;-69
2022/05/22 12:10:14;;;;;;;;;;;;;;;12.10;77.89;98174.92;1714909;83;20137;-70
2022/05/22 12:12:56;;;;;;;;;;;;;;;12.10;77.72;98179.84;1730942;82;20446;-73
2022/05/22 12:15:43;;;;;;;;;;;;;;;12.10;76.54;98185.34;1731358;82;20448;-75
2022/05/22 12:18:25;;;;;;;;;;;;;;;12.10;76.61;98185.34;1730972;83;21132;-73
2022/05/22 12:21:29;;;;;;;;;;;;;;;12.15;77.07;98185.61;1730864;82;20134;-79
2022/05/22 12:24:28;;;;;;;;;;;;;;;12.19;77.19;98192.79;1730896;81;20462;-78
2022/05/22 12:26:55;;;;;;;;;;;;;;;12.22;77.04;98193.45;1730644;82;20135;-81
2022/05/22 12:29:33;;;;;;;;;;;;;;;12.20;75.69;98180.63;1731002;83;20118;-80
2022/05/22 12:32:03;;;;;;;;;;;;;;;12.17;76.80;98194.30;1731142;82;21118;-81
2022/05/22 12:34:40;;;;;;;;;;;;;;;12.14;78.75;98196.39;1730414;82;20123;-79
2022/05/22 12:37:09;;;;;;;;;;;;;;;12.07;79.69;98193.52;1731363;82;20432;-87
2022/05/22 12:39:44;;;;;;;;;;;;;;;11.97;80.53;98189.36;1730961;83;20115;-78
2022/05/22 12:42:13;;;;;;;;;;;;;;;11.90;81.04;98196.86;1731362;82;20075;-81
2022/05/22 12:44:39;;;;;;;;;;;;;;;11.84;80.46;98193.37;1731077;82;21096;-90
2022/05/22 12:47:13;;;;;;;;;;;;;;;11.79;79.52;98210.93;1731237;83;20111;-89
2022/05/22 12:49:39;;;;;;;;;;;;;;;11.75;79.59;98212.77;1730608;82;20143;-84
2022/05/22 12:52:27;;;;;;;;;;;;;;;11.72;79.15;98208.55;1718083;83;20152;-78
2022/05/22 12:55:02;;;;;;;;;;;;;;;11.69;79.64;98215.56;1701772;84;20436;-68
2022/05/22 12:57:29;;;;;;;;;;;;;;;11.68;80.23;98216.71;1702211;84;21135;-68
2022/05/22 13:00:00;;;;;;;;;;;;;;;11.68;80.51;98216.71;1701822;84;20085;-68
2022/05/22 13:02:36;;;;;;;;;;;;;;;11.69;80.79;98224.38;1731899;82;20114;-68
2022/05/22 13:05:06;;;;;;;;;;;;;;;11.66;81.16;98226.47;1750085;81;20388;-68
2022/05/22 13:07:35;;;;;;;;;;;;;;;11.62;81.97;98229.12;1725083;82;20459;-68
2022/05/22 13:10:37;;;;;;;;;;;;;;;11.59;81.45;98232.00;1730083;83;21193;-71
2022/05/22 13:13:06;;;;;;;;;;;;;;;11.59;81.71;98233.95;1750646;82;20151;-74
2022/05/22 13:15:34;;;;;;;;;;;;;;;11.61;82.23;98231.66;1751177;82;20071;-76
2022/05/22 13:18:18;;;;;;;;;;;;;;;11.62;81.70;98235.20;1751191;82;20095;-78
2022/05/22 13:20:56;;;;;;;;;;;;;;;11.58;81.97;98239.23;1751031;82;20099;-71
2022/05/22 13:23:33;;;;;;;;;;;;;;;11.53;83.33;98249.14;1748158;82;21130;-78
2022/05/22 13:26:09;;;;;;;;;;;;;;;11.48;83.78;98245.28;1750100;82;20153;-73
2022/05/22 13:28:42;;;;;;;;;;;;;;;11.45;84.95;98244.61;1737214;82;20112;-72
2022/05/22 13:31:13;;;;;;;;;;;;;;;11.41;85.57;98251.38;1751108;81;20115;-71
2022/05/22 13:33:51;;;;;;;;;;;;;;;11.37;86.09;98246.94;1750609;82;20150;-69